Herington, KS (67449)

8:13 PM CDT on October 20, 2014 (GMT -0500)
A.D. Olp Trucking Co | Change Station
CLOSE
Current Station
Personal Weather Station
Location: Abilene, KS
Elevation: 1146 ft
Nearby Weather Stations

Elev 1146 ft 38.90 °N, 97.22 °W | Updated 0 second ago

Clear
Clear
63.4 °F
Feels Like 63.4 °F
N
0.0
Wind Variable Wind from NE
Gusts 0.0 mph

Today
High -- | Low -- °F
--% Chance of Precip.
Yesterday
High -- | Low -- °F
Precip. -- in
7:42 AM 6:42 PM
Waning Crescent, 8% visible
Pressure 30.06 in
Visibility 8.0 miles
Clouds Clear
Dew Point 43 °F
Humidity 48%
Rainfall 0.00 in
Snow Depth Not available.
UV 0 out of 12
Pollen 3.00 out of 12
Air Quality Not available.
Flu Activity No Activity
METAR KFRI 210058Z AUTO 25002KT 8SM CLR 15/09 A3006 RMK AO2 SLP179 T01460089

More Conditions Fewer Conditions

Pressure 30.06 in
Visibility 8.0 miles
Clouds Clear
Dew Point 43 °F
Humidity 48%
Rainfall 0.00 in
Snow Depth Not available.
UV 0 out of 12
Pollen 3.00 out of 12
Air Quality Not available.
Flu Activity No Activity
METAR KFRI 210058Z AUTO 25002KT 8SM CLR 15/09 A3006 RMK AO2 SLP179 T01460089

More Conditions Fewer Conditions

10-Day Weather Forecast

Almanac

Astronomy

Oct. 20, 2014 Rise Set
Actual Time 7:42 AM CDT 6:42 PM CDT
Civil Twilight 7:15 AM CDT 7:09 PM CDT
Nautical Twilight 6:44 AM CDT 7:40 PM CDT
Astronomical Twilight 6:13 AM CDT 8:11 PM CDT
Moon 4:33 AM CDT (10/20) 5:04 PM CDT (10/20)
Length of Visible Light 11h 54m
Length of Day
11h 00m
Tomorrow will be 2m 23s shorter.
Waning Crescent, 8% of the Moon is Illuminated
Today
Waning Crescent
Oct 23
New
Oct 30
First Quarter
Nov 6
Full
Nov 14
Last Quarter

Today's Extremes

State Highs State Lows

Community

WunderPhotos

Upload Photos

1,763,578 photos uploaded!

Nearby

Snow Depth

Station Depth Elevation
No new snow has been reported.

Earthquake Activity

City Distance Mag. Time & Date
Medford, Oklahoma 144 miles 3.2 7:46 PM CDT
2014-10-20
Anthony, Kansas 123 miles 2.6 6:30 PM CDT
2014-10-20
Anthony, Kansas 124 miles 2.6 4:33 PM CDT
2014-10-20
Anthony, Kansas 125 miles 3.1 9:25 AM CDT
2014-10-20
Minimum magnitude displayed is 2.5.

Coastal Water Temperatures

Place Temperature
No Stations Reporting

Nearby Weather Stations